createdAt,value
2019-05-25T00:01:56.064Z,82.81
2019-05-25T00:04:24.932Z,83.09
2019-05-25T00:06:53.805Z,83.08
2019-05-25T00:09:22.688Z,82.96
2019-05-25T00:11:51.606Z,83.37
2019-05-25T00:14:20.442Z,83.34
2019-05-25T00:16:49.348Z,82.84
2019-05-25T00:19:22.097Z,83.06
2019-05-25T00:21:50.993Z,83.42
2019-05-25T03:15:27.944Z,86.01
2019-05-25T04:08:14.858Z,87.12
2019-05-25T04:10:43.848Z,86.88
2019-05-25T04:13:12.662Z,86.80
2019-05-25T04:15:41.514Z,86.67
2019-05-25T04:18:10.523Z,86.83
2019-05-25T04:20:39.387Z,86.69
2019-05-25T04:23:08.251Z,86.49
2019-05-25T04:28:25.276Z,85.95
2019-05-25T04:30:54.224Z,85.61
2019-05-25T04:33:48.653Z,85.23
2019-05-25T04:36:50.306Z,85.04
2019-05-25T04:39:38.195Z,84.88
2019-05-25T04:42:51.128Z,84.77
2019-05-25T04:45:45.148Z,84.72
2019-05-25T04:48:12.657Z,84.91
2019-05-25T04:50:41.605Z,84.97
2019-05-25T04:53:43.694Z,85.28
2019-05-25T04:56:12.592Z,85.17
2019-05-25T04:58:41.463Z,85.18
2019-05-25T05:01:29.868Z,85.04
2019-05-25T05:04:44.321Z,85.09
2019-05-25T05:07:16.124Z,84.75
2019-05-25T05:09:45.320Z,84.59
2019-05-25T05:12:14.286Z,84.77
2019-05-25T05:14:43.198Z,84.66
2019-05-25T05:20:00.277Z,84.33
2019-05-25T05:22:29.410Z,84.17
2019-05-25T05:24:58.269Z,83.43
2019-05-25T05:27:27.223Z,83.14
2019-05-25T05:30:05.255Z,82.44
2019-05-25T05:32:34.309Z,81.95
2019-05-25T05:35:03.202Z,81.61
2019-05-25T05:38:03.242Z,80.59
2019-05-25T05:40:33.023Z,80.43
2019-05-25T05:43:04.825Z,79.43
2019-05-25T05:45:36.231Z,79.47
2019-05-25T05:48:05.258Z,79.17
2019-05-25T05:50:37.277Z,78.58
2019-05-25T05:53:06.310Z,77.15
2019-05-25T05:55:35.330Z,76.41
2019-05-25T05:58:04.734Z,76.00
2019-05-25T06:00:33.846Z,75.86
2019-05-25T06:03:02.959Z,75.75
2019-05-25T06:05:31.836Z,75.97
2019-05-25T06:08:00.738Z,77.07
2019-05-25T06:10:29.639Z,76.03
2019-05-25T06:12:58.454Z,75.52
2019-05-25T06:15:27.401Z,75.75
2019-05-25T06:17:56.356Z,75.03
2019-05-25T06:20:25.168Z,74.76
2019-05-25T06:22:54.436Z,74.81
2019-05-25T06:25:23.577Z,74.69
2019-05-25T06:27:52.444Z,74.76
2019-05-25T06:30:21.834Z,74.52
2019-05-25T06:32:50.666Z,74.10
2019-05-25T06:35:19.780Z,74.07
2019-05-25T06:37:49.221Z,74.50
2019-05-25T06:40:18.258Z,74.13
2019-05-25T06:42:47.349Z,73.61
2019-05-25T06:45:16.511Z,73.40
2019-05-25T06:47:45.588Z,73.09
2019-05-25T06:50:14.925Z,73.33
2019-05-25T06:52:44.101Z,73.94
2019-05-25T06:55:13.246Z,74.49
2019-05-25T06:57:43.793Z,74.68
2019-05-25T07:00:14.662Z,75.15
2019-05-25T07:02:43.641Z,75.41
2019-05-25T07:05:17.035Z,75.89
2019-05-25T07:07:45.856Z,75.67
2019-05-25T07:10:15.031Z,75.92
2019-05-25T07:12:43.919Z,76.41
2019-05-25T07:15:15.218Z,76.12
2019-05-25T07:17:44.093Z,76.64
2019-05-25T07:20:27.173Z,76.87
2019-05-25T07:22:49.378Z,77.19
2019-05-25T07:25:20.292Z,77.50
2019-05-25T07:27:58.784Z,78.00
2019-05-25T07:30:22.318Z,77.49
2019-05-25T07:32:51.343Z,77.27
2019-05-25T07:35:22.794Z,76.88
2019-05-25T07:44:53.541Z,75.76
2019-05-25T07:47:22.418Z,75.63
2019-05-25T07:49:51.342Z,74.97
2019-05-25T07:52:20.208Z,74.95
2019-05-25T07:54:49.229Z,74.04
2019-05-25T07:57:18.249Z,73.07
2019-05-25T07:59:47.153Z,72.94
2019-05-25T08:02:16.024Z,71.07
2019-05-25T08:04:45.388Z,69.47
2019-05-25T08:07:14.427Z,68.67
2019-05-25T08:09:43.294Z,66.63
2019-05-25T08:12:12.302Z,65.55
2019-05-25T08:14:44.852Z,65.55
2019-05-25T08:17:11.891Z,65.44
2019-05-25T08:19:40.633Z,65.36
2019-05-25T08:22:09.565Z,66.17
2019-05-25T08:24:38.624Z,65.87
2019-05-25T08:27:08.625Z,66.50
2019-05-25T08:29:37.758Z,67.96
2019-05-25T08:32:06.706Z,66.70
2019-05-25T08:34:35.649Z,67.03
2019-05-25T08:37:04.890Z,66.18
2019-05-25T08:39:33.950Z,66.18
2019-05-25T08:42:02.921Z,66.54
2019-05-25T08:44:32.338Z,66.44
2019-05-25T08:47:06.099Z,66.54
2019-05-25T08:49:35.490Z,66.54
2019-05-25T08:52:07.274Z,66.03
2019-05-25T08:54:36.564Z,66.12
2019-05-25T08:57:14.871Z,64.87
2019-05-25T09:06:42.736Z,67.08
2019-05-25T09:09:17.029Z,65.21
2019-05-25T09:11:45.973Z,65.52
2019-05-25T09:14:14.755Z,65.42
2019-05-25T09:16:43.896Z,65.31
2019-05-25T09:19:13.015Z,64.97
2019-05-25T09:21:41.855Z,64.91
2019-05-25T09:24:10.971Z,64.43
2019-05-25T09:26:39.947Z,62.21
2019-05-25T09:32:49.952Z,61.08
2019-05-25T09:35:19.036Z,60.84
2019-05-25T09:37:47.941Z,60.97
2019-05-25T09:40:17.781Z,61.45
2019-05-25T09:48:08.456Z,63.59
2019-05-25T09:50:37.507Z,63.44
2019-05-25T09:53:06.402Z,63.67
2019-05-25T09:55:44.501Z,63.49
2019-05-25T09:58:14.373Z,62.33
2019-05-25T10:00:43.588Z,61.98
2019-05-25T10:03:12.711Z,62.92
2019-05-25T10:05:43.647Z,61.68
2019-05-25T10:08:12.723Z,62.21
2019-05-25T10:10:41.878Z,61.30
2019-05-25T10:13:11.578Z,61.97
2019-05-25T10:15:42.480Z,61.95
2019-05-25T10:18:13.755Z,60.92
2019-05-25T10:20:43.081Z,61.04
2019-05-25T10:23:12.814Z,61.59
2019-05-25T10:25:42.839Z,60.78
2019-05-25T10:28:22.871Z,60.59
2019-05-25T10:30:51.998Z,60.80
2019-05-25T10:33:21.926Z,61.00
2019-05-25T10:35:51.255Z,62.29
2019-05-25T10:38:20.510Z,63.55
2019-05-25T10:41:02.235Z,65.18
2019-05-25T10:43:32.432Z,65.92
2019-05-25T10:46:01.673Z,66.36
2019-05-25T10:48:31.106Z,65.86
2019-05-25T10:51:00.061Z,64.81
2019-05-25T10:53:29.260Z,64.53
2019-05-25T10:55:58.375Z,64.76
2019-05-25T10:58:28.425Z,62.50
2019-05-25T11:00:58.250Z,60.89
2019-05-25T11:03:27.463Z,58.04
2019-05-25T11:05:56.591Z,56.92
2019-05-25T11:08:26.121Z,56.88
2019-05-25T11:10:55.290Z,58.86
2019-05-25T11:13:24.372Z,61.00
2019-05-25T11:15:53.565Z,61.04
2019-05-25T11:18:22.563Z,61.46
2019-05-25T11:20:51.610Z,62.05
2019-05-25T11:23:22.787Z,63.78
2019-05-25T11:25:52.344Z,64.56
2019-05-25T11:28:21.372Z,63.53
2019-05-25T11:30:50.750Z,62.66
2019-05-25T11:33:19.857Z,61.84
2019-05-25T11:35:48.836Z,60.98
2019-05-25T11:38:17.848Z,59.88
2019-05-25T11:40:46.797Z,58.11
2019-05-25T11:43:15.894Z,57.08
2019-05-25T11:45:45.650Z,57.12
2019-05-25T11:48:14.881Z,57.50
2019-05-25T11:50:43.862Z,57.50
2019-05-25T11:53:13.240Z,57.28
2019-05-25T11:55:42.262Z,55.28
2019-05-25T11:58:11.428Z,52.53
2019-05-25T12:00:40.644Z,53.51
2019-05-25T12:03:09.485Z,54.30
2019-05-25T12:05:38.658Z,55.62
2019-05-25T12:08:07.690Z,57.05
2019-05-25T12:10:37.360Z,57.08
2019-05-25T12:13:07.946Z,58.93
2019-05-25T12:15:36.999Z,59.05
2019-05-25T12:18:05.933Z,58.60
2019-05-25T12:20:35.125Z,57.70
2019-05-25T12:23:04.342Z,57.12
2019-05-25T12:25:33.665Z,57.27
2019-05-25T12:28:04.786Z,56.26
2019-05-25T12:30:40.631Z,56.53
2019-05-25T12:33:04.716Z,56.01
2019-05-25T12:35:33.790Z,55.02
2019-05-25T12:38:03.199Z,58.08
2019-05-25T12:40:33.405Z,57.48
2019-05-25T12:43:02.537Z,56.78
2019-05-25T12:45:34.133Z,57.95
2019-05-25T12:48:03.604Z,58.35
2019-05-25T12:50:32.818Z,58.61
2019-05-25T12:53:02.418Z,58.12
2019-05-25T12:55:31.514Z,59.40
2019-05-25T12:58:00.285Z,61.62
2019-05-25T13:00:29.167Z,61.02
2019-05-25T13:02:58.041Z,61.68
2019-05-25T13:05:34.323Z,62.01
2019-05-25T13:07:57.991Z,61.60
2019-05-25T13:10:28.167Z,62.42
2019-05-25T13:12:58.901Z,61.46
2019-05-25T13:15:28.325Z,61.27
2019-05-25T13:17:57.338Z,61.10
2019-05-25T13:20:26.380Z,60.63
2019-05-25T13:22:55.410Z,61.35
2019-05-25T13:25:24.808Z,60.66
2019-05-25T13:27:53.742Z,60.79
2019-05-25T13:30:22.750Z,61.96
2019-05-25T13:32:51.586Z,62.79
2019-05-25T13:35:20.972Z,62.50
2019-05-25T13:37:49.837Z,63.05
2019-05-25T13:40:18.858Z,62.68
2019-05-25T13:42:47.819Z,62.46
2019-05-25T13:45:17.033Z,62.18
2019-05-25T13:47:46.124Z,62.90
2019-05-25T13:50:15.767Z,63.08
2019-05-25T13:52:44.679Z,63.48
2019-05-25T13:55:13.705Z,64.34
2019-05-25T13:57:42.692Z,64.03
2019-05-25T14:00:12.125Z,64.27
2019-05-25T14:02:41.005Z,63.66
2019-05-25T14:05:10.255Z,62.78
2019-05-25T14:07:39.243Z,62.91
2019-05-25T14:10:09.313Z,61.30
2019-05-25T14:12:38.720Z,60.63
2019-05-25T14:15:08.042Z,61.63
2019-05-25T14:17:37.004Z,61.63
2019-05-25T14:20:07.045Z,61.97
2019-05-25T14:22:36.053Z,63.42
2019-05-25T14:25:05.678Z,63.44
2019-05-25T14:27:34.526Z,63.27
2019-05-25T14:30:03.755Z,63.90
2019-05-25T14:32:32.526Z,62.12
2019-05-25T14:35:01.453Z,61.76
2019-05-25T14:37:31.511Z,62.83
2019-05-25T14:40:00.347Z,62.26
2019-05-25T14:42:29.281Z,62.17
2019-05-25T14:44:58.089Z,61.82
2019-05-25T14:47:27.091Z,63.46
2019-05-25T14:49:55.868Z,63.75
2019-05-25T14:52:24.672Z,63.55
2019-05-25T14:54:53.646Z,63.09
2019-05-25T14:57:22.629Z,62.79
2019-05-25T14:59:51.447Z,62.69
2019-05-25T15:02:20.282Z,63.00
2019-05-25T15:04:49.196Z,63.17
2019-05-25T15:07:18.398Z,63.06
2019-05-25T15:09:47.233Z,63.68
2019-05-25T15:12:16.054Z,62.87
2019-05-25T15:14:45.021Z,63.30
2019-05-25T15:17:13.959Z,63.31
2019-05-25T15:19:42.895Z,63.16
2019-05-25T15:22:11.968Z,62.91
2019-05-25T15:24:40.947Z,63.79
2019-05-25T15:27:09.817Z,62.96
2019-05-25T15:29:38.861Z,63.23
2019-05-25T15:32:19.704Z,63.42
2019-05-25T15:34:38.336Z,63.13
2019-05-25T15:37:07.190Z,63.82
2019-05-25T15:39:36.130Z,63.58
2019-05-25T15:42:05.323Z,63.94
2019-05-25T15:44:34.342Z,64.36
2019-05-25T15:47:07.491Z,63.85
2019-05-25T15:49:36.434Z,63.88
2019-05-25T15:52:05.670Z,63.65
2019-05-25T15:54:34.892Z,65.15
2019-05-25T15:57:08.721Z,64.01
2019-05-25T15:59:37.755Z,64.34
2019-05-25T16:02:06.931Z,63.80
2019-05-25T16:04:35.859Z,63.79
2019-05-25T16:07:05.290Z,63.37
2019-05-25T16:09:34.080Z,63.64
2019-05-25T16:12:03.043Z,63.19
2019-05-25T16:14:31.917Z,63.51
2019-05-25T16:17:00.725Z,63.97
2019-05-25T16:19:29.701Z,64.51
2019-05-25T16:21:58.583Z,65.64
2019-05-25T16:24:28.690Z,65.73
2019-05-25T16:26:57.549Z,65.89
2019-05-25T16:29:27.087Z,66.67
2019-05-25T16:31:57.232Z,65.64
2019-05-25T16:34:26.270Z,66.42
2019-05-25T16:36:55.221Z,66.14
2019-05-25T16:39:24.185Z,65.47
2019-05-25T16:41:52.980Z,65.01
2019-05-25T16:44:22.010Z,64.21
2019-05-25T16:46:50.921Z,64.04
2019-05-25T16:49:19.761Z,64.33
2019-05-25T16:51:48.546Z,64.84
2019-05-25T16:54:17.336Z,64.59
2019-05-25T16:56:46.125Z,63.99
2019-05-25T16:59:15.301Z,65.68
2019-05-25T17:01:48.595Z,66.08
2019-05-25T17:04:16.702Z,64.93
2019-05-25T17:06:47.319Z,64.58
2019-05-25T17:09:36.135Z,65.33
2019-05-25T17:12:05.241Z,65.33
2019-05-25T17:14:35.206Z,64.62
2019-05-25T17:17:04.929Z,65.34
2019-05-25T17:19:33.824Z,65.64
2019-05-25T17:22:03.131Z,65.49
2019-05-25T17:24:32.297Z,66.05
2019-05-25T17:27:01.118Z,65.80
2019-05-25T17:29:40.046Z,66.67
2019-05-25T17:32:10.142Z,67.07
2019-05-25T17:34:39.281Z,66.45
2019-05-25T17:37:08.193Z,66.04
2019-05-25T17:39:36.998Z,65.91
2019-05-25T17:42:06.143Z,65.85
2019-05-25T17:44:35.265Z,67.03
2019-05-25T17:47:04.303Z,66.00
2019-05-25T17:49:33.279Z,66.76
2019-05-25T17:52:02.085Z,66.43
2019-05-25T17:54:31.055Z,66.54
2019-05-25T17:56:59.864Z,67.44
2019-05-25T17:59:28.750Z,67.19
2019-05-25T18:01:57.795Z,67.43
2019-05-25T18:04:26.684Z,66.85
2019-05-25T18:06:56.451Z,67.32
2019-05-25T18:09:25.438Z,67.42
2019-05-25T18:15:11.570Z,67.92
2019-05-25T18:17:40.566Z,68.42
2019-05-25T18:20:10.134Z,68.67
2019-05-25T18:22:38.989Z,69.23
2019-05-25T18:25:08.022Z,69.30
2019-05-25T18:27:37.022Z,69.60
2019-05-25T18:30:25.078Z,70.32
2019-05-25T18:32:53.970Z,70.01
2019-05-25T18:35:26.045Z,70.62
2019-05-25T18:37:54.833Z,70.71
2019-05-25T18:40:23.787Z,71.04
2019-05-25T18:42:52.849Z,71.16
2019-05-25T18:45:22.636Z,71.35
2019-05-25T18:47:51.669Z,71.40
2019-05-25T18:50:21.399Z,71.08
2019-05-25T18:52:50.342Z,71.37
2019-05-25T18:55:21.081Z,70.85
2019-05-25T18:57:49.916Z,71.42
2019-05-25T19:00:20.117Z,71.42
2019-05-25T19:02:49.079Z,71.68
2019-05-25T19:05:18.163Z,72.03
2019-05-25T19:07:47.130Z,72.22
2019-05-25T19:10:16.553Z,72.35
2019-05-25T19:12:45.380Z,72.40
2019-05-25T19:15:16.495Z,72.59
2019-05-25T19:17:45.583Z,72.48
2019-05-25T19:20:20.701Z,72.40
2019-05-25T19:22:45.888Z,72.41
2019-05-25T19:25:16.821Z,72.73
2019-05-25T19:27:45.756Z,72.74
2019-05-25T19:30:16.802Z,72.50
2019-05-25T19:32:45.985Z,72.75
2019-05-25T19:35:15.069Z,71.91
2019-05-25T19:37:44.086Z,71.83
2019-05-25T19:40:13.236Z,70.83
2019-05-25T19:42:43.098Z,70.79
2019-05-25T19:45:12.606Z,70.56
2019-05-25T19:47:41.531Z,70.69
2019-05-25T19:50:11.272Z,71.13
2019-05-25T19:52:40.197Z,71.05
2019-05-25T19:55:11.079Z,70.64
2019-05-25T19:57:40.159Z,71.20
2019-05-25T20:00:09.762Z,71.29
2019-05-25T20:02:38.852Z,71.80
2019-05-25T20:05:16.536Z,71.96
2019-05-25T20:07:39.912Z,71.97
2019-05-25T20:10:12.795Z,71.89
2019-05-25T20:12:43.773Z,71.79
2019-05-25T20:15:13.704Z,71.68
2019-05-25T20:17:42.866Z,72.29
2019-05-25T20:20:15.748Z,71.50
2019-05-25T20:22:44.830Z,71.39
2019-05-25T20:25:15.391Z,72.40
2019-05-25T20:27:44.646Z,72.05
2019-05-25T20:30:13.941Z,72.19
2019-05-25T20:32:43.961Z,72.21
2019-05-25T20:35:13.130Z,72.47
2019-05-25T20:37:47.093Z,73.44
2019-05-25T20:40:16.634Z,72.93
2019-05-25T20:42:45.796Z,72.71
2019-05-25T20:45:15.259Z,72.98
2019-05-25T20:47:44.315Z,73.11
2019-05-25T20:50:13.615Z,73.16
2019-05-25T20:52:42.411Z,73.72
2019-05-25T20:55:11.409Z,73.81
2019-05-25T20:57:40.288Z,73.76
2019-05-25T21:00:10.650Z,74.16
2019-05-25T21:02:39.504Z,74.47
2019-05-25T21:05:08.649Z,74.80
2019-05-25T21:07:37.691Z,75.51
2019-05-25T21:10:07.049Z,76.07
2019-05-25T21:12:35.989Z,76.16
2019-05-25T21:15:05.637Z,76.99
2019-05-25T21:17:34.436Z,77.17
2019-05-25T21:20:03.334Z,77.74
2019-05-25T21:22:32.171Z,77.65
2019-05-25T21:25:05.693Z,77.81
2019-05-25T21:27:31.547Z,77.62
2019-05-25T21:30:00.359Z,78.46
2019-05-25T21:32:29.172Z,77.79
2019-05-25T21:34:58.155Z,78.64
2019-05-25T21:37:27.112Z,78.52
2019-05-25T21:39:56.038Z,79.20
2019-05-25T21:42:24.922Z,79.37
2019-05-25T21:44:56.326Z,79.09
2019-05-25T21:47:25.283Z,78.52
2019-05-25T21:49:54.111Z,78.59
2019-05-25T21:52:22.970Z,78.57
2019-05-25T21:54:51.715Z,78.78
2019-05-25T21:57:20.619Z,78.63
2019-05-25T21:59:49.465Z,79.21
2019-05-25T22:02:18.678Z,79.42
2019-05-25T22:04:48.459Z,78.70
2019-05-25T22:07:17.378Z,79.13
2019-05-25T22:09:46.309Z,79.73
2019-05-25T22:12:15.308Z,80.63
2019-05-25T22:14:44.208Z,81.56
2019-05-25T22:17:13.086Z,80.81
2019-05-25T22:19:41.879Z,80.75
2019-05-25T22:22:11.793Z,81.38
2019-05-25T22:24:40.759Z,81.72
2019-05-25T22:27:09.934Z,80.89
2019-05-25T22:29:39.283Z,81.22
2019-05-25T22:32:08.085Z,81.41
2019-05-25T22:34:36.922Z,82.01
2019-05-25T22:37:05.973Z,81.29
2019-05-25T22:39:34.862Z,81.70
2019-05-25T22:42:03.884Z,82.43
2019-05-25T22:44:32.796Z,82.91
2019-05-25T22:47:01.796Z,82.94
2019-05-25T22:49:30.611Z,83.23
2019-05-25T22:51:59.398Z,83.54
2019-05-25T22:54:28.248Z,84.17
2019-05-25T22:56:57.080Z,83.72
2019-05-25T22:59:26.034Z,83.55
2019-05-25T23:01:55.157Z,82.95
2019-05-25T23:04:24.065Z,83.57
2019-05-25T23:06:57.889Z,83.22
2019-05-25T23:09:23.629Z,83.50
2019-05-25T23:11:52.670Z,83.09
2019-05-25T23:14:21.522Z,83.25
2019-05-25T23:16:50.296Z,83.76
2019-05-25T23:19:19.514Z,83.96
2019-05-25T23:21:48.376Z,84.00
2019-05-25T23:24:17.371Z,83.82
2019-05-25T23:26:46.211Z,84.14
2019-05-25T23:29:15.227Z,84.03
2019-05-25T23:31:44.129Z,83.33
2019-05-25T23:34:12.993Z,83.53
2019-05-25T23:36:42.048Z,83.68
2019-05-25T23:39:10.853Z,84.36
2019-05-25T23:41:40.104Z,84.93
2019-05-25T23:44:09.040Z,84.41
2019-05-25T23:46:37.915Z,84.70
2019-05-25T23:49:06.895Z,84.69
2019-05-25T23:51:35.698Z,84.97
2019-05-25T23:54:04.726Z,85.66
2019-05-25T23:56:33.621Z,85.53
2019-05-25T23:59:02.443Z,85.99
